createdAt,value
2022-08-29T00:00:38.766Z,15.65
2022-08-29T00:03:08.802Z,14.82
2022-08-29T00:05:39.816Z,14.13
2022-08-29T00:08:07.130Z,13.43
2022-08-29T00:10:37.004Z,13.15
2022-08-29T00:13:06.566Z,13.00
2022-08-29T00:15:42.079Z,13.75
2022-08-29T00:18:13.559Z,12.57
2022-08-29T00:20:40.832Z,12.68
2022-08-29T00:23:07.916Z,14.55
2022-08-29T00:25:35.076Z,14.52
2022-08-29T00:28:02.636Z,16.20
2022-08-29T00:30:30.022Z,16.65
2022-08-29T00:32:57.164Z,15.88
2022-08-29T00:35:30.985Z,15.98
2022-08-29T00:37:58.675Z,15.75
2022-08-29T00:40:29.756Z,16.77
2022-08-29T00:42:57.669Z,14.73
2022-08-29T00:45:25.184Z,13.98
2022-08-29T00:48:12.024Z,12.52
2022-08-29T00:50:59.312Z,11.82
2022-08-29T00:53:35.167Z,11.50
2022-08-29T00:56:03.270Z,11.82
2022-08-29T00:58:41.275Z,9.38
2022-08-29T01:01:08.366Z,10.35
2022-08-29T01:03:39.398Z,10.30
2022-08-29T01:06:11.404Z,10.38
2022-08-29T01:08:38.349Z,10.80
2022-08-29T01:11:24.760Z,11.63
2022-08-29T01:13:54.921Z,11.18
2022-08-29T01:16:23.102Z,11.95
2022-08-29T01:18:53.331Z,10.30
2022-08-29T01:21:41.179Z,10.93
2022-08-29T01:24:43.821Z,11.20
2022-08-29T01:27:12.641Z,10.68
2022-08-29T01:29:40.161Z,10.05
2022-08-29T01:32:07.057Z,9.95
2022-08-29T01:34:33.811Z,10.43
2022-08-29T01:37:03.638Z,10.90
2022-08-29T01:39:34.016Z,10.98
2022-08-29T01:42:04.049Z,10.60
2022-08-29T01:44:30.866Z,10.55
2022-08-29T01:47:03.034Z,10.75
2022-08-29T01:49:33.178Z,9.95
2022-08-29T01:52:02.147Z,9.95
2022-08-29T01:54:30.220Z,10.52
2022-08-29T01:56:57.524Z,10.55
2022-08-29T01:59:27.369Z,11.02
2022-08-29T02:02:09.245Z,10.60
2022-08-29T02:04:36.713Z,11.02
2022-08-29T02:07:03.875Z,11.10
2022-08-29T02:09:30.777Z,11.40
2022-08-29T02:11:58.511Z,11.02
2022-08-29T02:14:25.406Z,11.75
2022-08-29T02:16:52.152Z,11.23
2022-08-29T02:19:19.498Z,11.05
2022-08-29T02:21:47.019Z,10.98
2022-08-29T02:24:25.342Z,13.25
2022-08-29T02:26:54.654Z,13.25
2022-08-29T02:29:21.638Z,12.95
2022-08-29T02:31:48.837Z,12.18
2022-08-29T02:34:16.064Z,12.65
2022-08-29T02:36:43.996Z,12.00
2022-08-29T02:39:11.636Z,11.88
2022-08-29T02:41:38.846Z,10.93
2022-08-29T02:44:05.691Z,11.98
2022-08-29T02:46:32.628Z,11.27
2022-08-29T02:49:00.832Z,12.98
2022-08-29T02:51:30.842Z,11.98
2022-08-29T02:53:59.074Z,11.95
2022-08-29T02:56:26.298Z,13.55
2022-08-29T02:58:53.176Z,13.60
2022-08-29T03:01:22.229Z,14.07
2022-08-29T03:03:50.458Z,15.75
2022-08-29T03:06:18.757Z,15.48
2022-08-29T03:08:45.910Z,15.30
2022-08-29T03:11:13.867Z,13.40
2022-08-29T03:13:40.862Z,15.05
2022-08-29T03:16:08.843Z,12.70
2022-08-29T03:18:37.579Z,13.80
2022-08-29T03:21:04.533Z,13.15
2022-08-29T03:23:31.394Z,12.35
2022-08-29T03:25:58.381Z,12.27
2022-08-29T03:28:25.567Z,11.30
2022-08-29T03:30:52.428Z,11.63
2022-08-29T03:33:19.337Z,11.43
2022-08-29T03:35:46.237Z,10.88
2022-08-29T03:38:13.254Z,11.93
2022-08-29T03:40:42.429Z,12.35
2022-08-29T03:43:09.874Z,15.07
2022-08-29T03:45:36.854Z,14.57
2022-08-29T03:48:04.383Z,15.73
2022-08-29T03:50:31.469Z,16.38
2022-08-29T03:52:58.436Z,17.30
2022-08-29T03:55:25.362Z,17.90
2022-08-29T03:57:54.432Z,18.88
2022-08-29T04:00:21.580Z,17.23
2022-08-29T04:02:49.080Z,15.90
2022-08-29T04:05:18.198Z,16.02
2022-08-29T04:07:48.162Z,14.98
2022-08-29T04:10:20.292Z,14.93
2022-08-29T04:12:51.224Z,14.30
2022-08-29T04:15:21.510Z,15.30
2022-08-29T04:17:53.003Z,15.20
2022-08-29T04:20:25.091Z,14.38
2022-08-29T04:22:54.398Z,14.60
2022-08-29T04:25:24.960Z,15.23
2022-08-29T04:27:52.148Z,15.23
2022-08-29T04:30:21.810Z,14.80
2022-08-29T04:32:48.636Z,16.35
2022-08-29T04:35:16.475Z,14.18
2022-08-29T04:37:44.418Z,16.02
2022-08-29T04:40:15.484Z,15.70
2022-08-29T04:42:43.180Z,16.92
2022-08-29T04:45:13.285Z,16.42
2022-08-29T04:47:41.708Z,17.52
2022-08-29T04:50:12.733Z,15.02
2022-08-29T04:52:39.809Z,15.95
2022-08-29T04:55:08.877Z,15.90
2022-08-29T04:57:38.197Z,14.30
2022-08-29T05:00:08.040Z,14.45
2022-08-29T05:02:34.894Z,14.98
2022-08-29T05:05:02.518Z,16.60
2022-08-29T05:07:29.504Z,14.57
2022-08-29T05:10:00.171Z,15.98
2022-08-29T05:15:54.744Z,14.88
2022-08-29T05:18:21.561Z,14.98
2022-08-29T05:20:49.154Z,14.63
2022-08-29T05:23:17.888Z,12.15
2022-08-29T05:25:45.992Z,13.50
2022-08-29T05:28:13.897Z,11.55
2022-08-29T05:30:41.393Z,12.70
2022-08-29T05:33:08.648Z,11.55
2022-08-29T05:35:35.991Z,11.23
2022-08-29T05:38:07.251Z,10.55
2022-08-29T05:40:36.860Z,11.18
2022-08-29T05:43:04.073Z,9.65
2022-08-29T05:45:30.811Z,8.95
2022-08-29T05:47:58.207Z,9.50
2022-08-29T05:50:24.984Z,9.80
2022-08-29T05:52:51.740Z,10.20
2022-08-29T05:55:18.607Z,9.57
2022-08-29T05:57:45.479Z,9.73
2022-08-29T06:00:14.356Z,9.25
2022-08-29T06:02:41.173Z,10.77
2022-08-29T06:05:08.905Z,11.13
2022-08-29T06:07:37.632Z,11.55
2022-08-29T06:10:06.923Z,11.00
2022-08-29T06:12:34.312Z,11.30
2022-08-29T06:15:01.739Z,11.65
2022-08-29T06:17:28.598Z,11.98
2022-08-29T06:19:55.348Z,12.52
2022-08-29T06:22:22.586Z,11.95
2022-08-29T06:24:53.324Z,13.40
2022-08-29T06:27:20.587Z,11.93
2022-08-29T06:29:47.344Z,14.68
2022-08-29T06:32:14.299Z,16.33
2022-08-29T06:34:41.213Z,14.60
2022-08-29T06:37:08.031Z,15.05
2022-08-29T06:39:35.273Z,15.18
2022-08-29T06:42:02.295Z,14.18
2022-08-29T06:44:31.588Z,13.75
2022-08-29T06:46:59.026Z,13.60
2022-08-29T06:49:27.627Z,13.52
2022-08-29T06:51:57.940Z,11.65
2022-08-29T06:54:27.922Z,12.85
2022-08-29T06:56:56.080Z,12.25
2022-08-29T06:59:23.142Z,11.85
2022-08-29T07:01:50.148Z,11.88
2022-08-29T07:04:16.931Z,13.52
2022-08-29T07:06:48.870Z,11.77
2022-08-29T07:09:15.875Z,12.52
2022-08-29T07:11:43.272Z,12.68
2022-08-29T07:14:11.864Z,11.48
2022-08-29T07:16:39.446Z,12.02
2022-08-29T07:19:08.708Z,11.23
2022-08-29T07:21:36.001Z,10.75
2022-08-29T07:24:03.445Z,12.20
2022-08-29T07:26:33.541Z,10.65
2022-08-29T07:29:03.721Z,10.73
2022-08-29T07:31:31.423Z,11.65
2022-08-29T07:34:02.076Z,11.43
2022-08-29T07:36:31.846Z,11.48
2022-08-29T07:38:58.891Z,10.55
2022-08-29T07:41:25.869Z,11.65
2022-08-29T07:43:52.936Z,10.95
2022-08-29T07:46:20.939Z,11.27
2022-08-29T07:48:48.552Z,11.93
2022-08-29T07:51:18.046Z,11.82
2022-08-29T07:53:45.564Z,10.70
2022-08-29T07:56:25.870Z,10.00
2022-08-29T07:58:53.943Z,10.40
2022-08-29T08:01:21.948Z,9.60
2022-08-29T08:03:50.354Z,9.05
2022-08-29T08:06:20.811Z,10.35
2022-08-29T08:08:48.681Z,9.85
2022-08-29T08:11:15.831Z,10.50
2022-08-29T08:13:43.198Z,10.15
2022-08-29T08:16:13.837Z,9.25
2022-08-29T08:18:42.420Z,10.40
2022-08-29T08:21:09.980Z,11.02
2022-08-29T08:23:37.540Z,9.77
2022-08-29T08:26:04.633Z,8.77
2022-08-29T08:28:31.482Z,9.98
2022-08-29T08:31:05.046Z,9.52
2022-08-29T08:33:34.854Z,9.23
2022-08-29T08:36:02.809Z,11.48
2022-08-29T08:38:31.158Z,10.90
2022-08-29T08:41:22.883Z,9.73
2022-08-29T08:44:00.650Z,9.13
2022-08-29T08:46:39.840Z,11.23
2022-08-29T08:49:16.952Z,10.07
2022-08-29T08:51:52.445Z,11.27
2022-08-29T08:54:24.520Z,10.40
2022-08-29T08:57:01.325Z,9.93
2022-08-29T08:59:35.540Z,9.18
2022-08-29T09:02:27.626Z,9.50
2022-08-29T09:05:14.643Z,9.65
2022-08-29T09:07:50.943Z,9.60
2022-08-29T09:10:31.373Z,10.35
2022-08-29T09:12:58.614Z,10.38
2022-08-29T09:15:34.334Z,10.65
2022-08-29T09:18:04.635Z,9.75
2022-08-29T09:20:36.797Z,9.65
2022-08-29T09:23:11.231Z,10.10
2022-08-29T09:25:38.119Z,10.25
2022-08-29T09:28:07.661Z,8.70
2022-08-29T09:30:36.768Z,8.75
2022-08-29T09:33:15.783Z,9.27
2022-08-29T09:35:48.774Z,8.98
2022-08-29T09:38:18.611Z,8.55
2022-08-29T09:40:48.285Z,7.80
2022-08-29T09:43:22.036Z,8.95
2022-08-29T09:46:07.705Z,8.32
2022-08-29T09:48:37.589Z,6.97
2022-08-29T09:51:40.656Z,7.45
2022-08-29T09:54:26.525Z,7.63
2022-08-29T09:57:11.791Z,7.68
2022-08-29T09:59:43.662Z,8.00
2022-08-29T10:04:55.797Z,7.03
2022-08-29T10:07:32.389Z,7.68
2022-08-29T10:10:07.241Z,8.43
2022-08-29T10:12:38.745Z,6.25
2022-08-29T10:15:23.602Z,6.32
2022-08-29T10:20:56.862Z,5.95
2022-08-29T10:23:49.632Z,6.10
2022-08-29T10:26:20.111Z,5.63
2022-08-29T10:28:59.581Z,5.65
2022-08-29T10:31:32.518Z,6.28
2022-08-29T10:34:18.083Z,5.97
2022-08-29T10:36:55.308Z,6.30
2022-08-29T10:39:33.450Z,5.18
2022-08-29T10:42:06.170Z,4.93
2022-08-29T10:44:54.575Z,5.28
2022-08-29T10:47:53.855Z,5.65
2022-08-29T10:50:44.034Z,4.60
2022-08-29T10:53:32.565Z,5.53
2022-08-29T10:56:28.436Z,5.15
2022-08-29T10:59:18.615Z,6.00
2022-08-29T11:02:05.511Z,5.55
2022-08-29T11:04:43.669Z,6.47
2022-08-29T11:07:19.594Z,6.80
2022-08-29T11:10:07.191Z,6.18
2022-08-29T11:12:45.916Z,6.93
2022-08-29T11:15:18.486Z,8.35
2022-08-29T11:17:51.956Z,8.53
2022-08-29T11:20:32.194Z,8.55
2022-08-29T11:23:35.905Z,7.85
2022-08-29T11:26:19.201Z,8.05
2022-08-29T11:28:51.411Z,8.82
2022-08-29T11:31:32.842Z,8.50
2022-08-29T11:34:34.202Z,7.60
2022-08-29T11:37:21.324Z,8.65
2022-08-29T11:40:13.176Z,9.70
2022-08-29T11:42:52.757Z,8.70
2022-08-29T11:45:37.515Z,8.50
2022-08-29T11:48:36.802Z,7.82
2022-08-29T11:51:31.928Z,10.35
2022-08-29T11:54:25.397Z,8.70
2022-08-29T11:57:00.848Z,8.77
2022-08-29T11:59:49.441Z,8.98
2022-08-29T12:02:28.466Z,8.23
2022-08-29T12:04:56.631Z,6.90
2022-08-29T12:07:52.003Z,8.05
2022-08-29T12:10:24.642Z,6.97
2022-08-29T12:12:56.511Z,6.22
2022-08-29T12:15:42.143Z,7.15
2022-08-29T12:18:13.649Z,6.70
2022-08-29T12:20:46.504Z,5.72
2022-08-29T12:23:13.252Z,5.13
2022-08-29T12:25:43.738Z,5.70
2022-08-29T12:28:27.014Z,5.82
2022-08-29T12:31:11.102Z,5.45
2022-08-29T12:33:59.944Z,6.00
2022-08-29T12:37:04.065Z,5.05
2022-08-29T12:39:42.550Z,5.35
2022-08-29T12:42:35.559Z,5.10
2022-08-29T12:45:05.188Z,5.13
2022-08-29T12:47:46.116Z,5.85
2022-08-29T12:50:22.460Z,5.45
2022-08-29T12:53:23.544Z,4.75
2022-08-29T12:56:00.123Z,5.63
2022-08-29T12:58:54.881Z,5.65
2022-08-29T13:01:37.899Z,5.13
2022-08-29T13:04:13.095Z,4.95
2022-08-29T13:06:54.583Z,5.75
2022-08-29T13:09:31.765Z,5.05
2022-08-29T13:12:14.118Z,5.90
2022-08-29T13:14:59.454Z,5.93
2022-08-29T13:17:35.376Z,5.68
2022-08-29T13:20:48.732Z,5.90
2022-08-29T13:23:18.533Z,5.70
2022-08-29T13:25:55.901Z,6.57
2022-08-29T13:28:37.964Z,6.53
2022-08-29T13:31:14.336Z,6.05
2022-08-29T13:33:50.502Z,6.85
2022-08-29T13:36:38.363Z,6.97
2022-08-29T13:39:17.467Z,6.32
2022-08-29T13:42:02.661Z,6.45
2022-08-29T13:44:55.696Z,6.25
2022-08-29T13:47:26.213Z,5.05
2022-08-29T13:49:59.464Z,5.20
2022-08-29T13:52:31.466Z,4.22
2022-08-29T13:54:59.277Z,4.93
2022-08-29T13:57:29.490Z,4.53
2022-08-29T13:59:57.883Z,4.85
2022-08-29T14:02:44.667Z,5.18
2022-08-29T14:05:13.795Z,5.00
2022-08-29T14:07:44.013Z,5.38
2022-08-29T14:10:14.072Z,5.15
2022-08-29T14:12:41.134Z,5.07
2022-08-29T14:15:11.164Z,5.22
2022-08-29T14:17:41.837Z,6.18
2022-08-29T14:20:10.847Z,4.75
2022-08-29T14:22:38.612Z,5.70
2022-08-29T14:25:07.992Z,4.78
2022-08-29T14:27:35.587Z,5.03
2022-08-29T14:30:03.910Z,4.63
2022-08-29T14:32:30.697Z,5.03
2022-08-29T14:34:58.558Z,4.63
2022-08-29T14:37:25.403Z,4.82
2022-08-29T14:39:52.454Z,4.50
2022-08-29T14:42:19.970Z,4.57
2022-08-29T14:44:46.744Z,4.10
2022-08-29T14:47:13.869Z,4.18
2022-08-29T14:49:41.178Z,4.38
2022-08-29T14:52:09.157Z,5.43
2022-08-29T14:54:35.978Z,4.15
2022-08-29T14:57:02.888Z,4.95
2022-08-29T14:59:29.745Z,5.53
2022-08-29T15:01:56.660Z,6.82
2022-08-29T15:04:35.936Z,6.40
2022-08-29T15:07:12.000Z,5.47
2022-08-29T15:09:41.867Z,5.07
2022-08-29T15:12:08.951Z,5.70
2022-08-29T15:14:36.023Z,5.93
2022-08-29T15:17:06.459Z,6.38
2022-08-29T15:22:22.352Z,6.18
2022-08-29T15:24:51.068Z,5.45
2022-08-29T15:27:23.620Z,6.45
2022-08-29T15:29:53.405Z,5.60
2022-08-29T15:32:20.301Z,5.93
2022-08-29T15:34:47.074Z,7.25
2022-08-29T15:37:14.241Z,8.45
2022-08-29T15:39:41.705Z,8.27
2022-08-29T15:42:11.313Z,8.18
2022-08-29T15:44:39.826Z,9.88
2022-08-29T15:47:10.543Z,9.85
2022-08-29T15:49:38.190Z,10.15
2022-08-29T15:52:05.139Z,9.48
2022-08-29T15:54:32.057Z,11.27
2022-08-29T15:56:58.888Z,9.50
2022-08-29T15:59:47.181Z,9.68
2022-08-29T16:02:14.545Z,9.32
2022-08-29T16:04:47.765Z,8.95
2022-08-29T16:07:15.825Z,10.65
2022-08-29T16:09:43.821Z,9.00
2022-08-29T16:12:11.589Z,9.43
2022-08-29T16:14:58.440Z,9.27
2022-08-29T16:17:26.501Z,8.38
2022-08-29T16:19:53.280Z,9.93
2022-08-29T16:22:20.269Z,8.25
2022-08-29T16:24:47.445Z,8.50
2022-08-29T16:27:14.256Z,7.82
2022-08-29T16:29:41.136Z,7.57
2022-08-29T16:32:08.620Z,8.40
2022-08-29T16:34:35.764Z,8.05
2022-08-29T16:37:02.968Z,8.70
2022-08-29T16:39:29.979Z,9.88
2022-08-29T16:41:56.965Z,9.38
2022-08-29T16:44:24.552Z,8.73
2022-08-29T16:46:51.700Z,10.80
2022-08-29T16:49:19.098Z,11.95
2022-08-29T16:51:46.189Z,12.55
2022-08-29T16:54:13.570Z,10.13
2022-08-29T16:56:40.352Z,10.52
2022-08-29T16:59:08.033Z,10.95
2022-08-29T17:01:46.720Z,11.48
2022-08-29T17:04:22.198Z,11.73
2022-08-29T17:06:49.216Z,11.27
2022-08-29T17:09:17.839Z,12.57
2022-08-29T17:11:45.503Z,12.10
2022-08-29T17:14:14.067Z,12.52
2022-08-29T17:16:41.853Z,12.18
2022-08-29T17:19:08.843Z,12.88
2022-08-29T17:21:35.824Z,13.07
2022-08-29T17:24:04.300Z,15.07
2022-08-29T17:26:31.224Z,17.35
2022-08-29T17:28:58.094Z,16.05
2022-08-29T17:31:25.270Z,15.88
2022-08-29T17:33:52.649Z,16.42
2022-08-29T17:36:21.396Z,18.35
2022-08-29T17:38:48.616Z,18.80
2022-08-29T17:41:19.389Z,19.05
2022-08-29T17:43:48.610Z,18.40
2022-08-29T17:46:17.410Z,16.92
2022-08-29T17:48:45.716Z,17.25
2022-08-29T17:51:12.624Z,18.02
2022-08-29T17:53:41.133Z,19.60
2022-08-29T17:56:12.381Z,19.50
2022-08-29T17:58:40.551Z,18.52
2022-08-29T18:01:15.133Z,19.45
2022-08-29T18:03:43.364Z,17.25
2022-08-29T18:06:10.329Z,16.88
2022-08-29T18:08:39.089Z,17.17
2022-08-29T18:11:06.610Z,13.52
2022-08-29T18:13:34.012Z,14.10
2022-08-29T18:16:00.970Z,12.75
2022-08-29T18:18:29.270Z,11.48
2022-08-29T18:20:56.191Z,11.77
2022-08-29T18:23:23.144Z,11.93
2022-08-29T18:25:51.505Z,11.88
2022-08-29T18:28:19.134Z,12.43
2022-08-29T18:30:46.049Z,11.77
2022-08-29T18:33:13.667Z,11.38
2022-08-29T18:35:41.148Z,10.25
2022-08-29T18:38:08.303Z,11.18
2022-08-29T18:40:38.955Z,11.05
2022-08-29T18:43:09.806Z,10.93
2022-08-29T18:45:38.160Z,11.20
2022-08-29T18:48:05.493Z,11.55
2022-08-29T18:50:35.231Z,11.52
2022-08-29T18:53:14.643Z,10.85
2022-08-29T18:55:50.473Z,10.82
2022-08-29T18:58:20.821Z,11.82
2022-08-29T19:00:48.607Z,12.63
2022-08-29T19:03:16.073Z,13.15
2022-08-29T19:05:49.198Z,12.50
2022-08-29T19:08:22.147Z,11.70
2022-08-29T19:10:49.455Z,11.80
2022-08-29T19:13:20.763Z,11.43
2022-08-29T19:15:48.680Z,11.88
2022-08-29T19:18:16.341Z,11.73
2022-08-29T19:21:01.933Z,12.07
2022-08-29T19:23:56.008Z,13.65
2022-08-29T19:26:28.542Z,13.25
2022-08-29T19:29:01.561Z,12.80
2022-08-29T19:31:29.291Z,13.57
2022-08-29T19:33:57.395Z,13.65
2022-08-29T19:36:24.879Z,13.55
2022-08-29T19:38:51.827Z,13.52
2022-08-29T19:41:19.226Z,14.07
2022-08-29T19:43:46.040Z,13.60
2022-08-29T19:46:17.967Z,13.45
2022-08-29T19:48:48.769Z,14.85
2022-08-29T19:51:19.639Z,14.85
2022-08-29T19:53:48.538Z,14.95
2022-08-29T19:56:17.862Z,14.70
2022-08-29T19:58:44.843Z,15.48
2022-08-29T20:01:11.988Z,15.82
2022-08-29T20:03:40.794Z,15.77
2022-08-29T20:06:08.828Z,15.70
2022-08-29T20:08:37.429Z,15.48
2022-08-29T20:11:06.412Z,14.48
2022-08-29T20:13:35.746Z,14.10
2022-08-29T20:16:09.598Z,16.00
2022-08-29T20:18:40.846Z,14.82
2022-08-29T20:21:08.149Z,13.93
2022-08-29T20:23:43.540Z,14.05
2022-08-29T20:26:18.844Z,15.70
2022-08-29T20:28:46.345Z,14.38
2022-08-29T20:31:13.310Z,15.18
2022-08-29T20:33:42.559Z,14.25
2022-08-29T20:36:28.182Z,12.93
2022-08-29T20:38:55.008Z,13.93
2022-08-29T20:41:23.127Z,13.05
2022-08-29T20:43:50.184Z,12.65
2022-08-29T20:46:17.225Z,12.68
2022-08-29T20:48:44.390Z,14.25
2022-08-29T20:51:11.471Z,11.60
2022-08-29T20:53:39.415Z,13.13
2022-08-29T20:56:06.737Z,12.48
2022-08-29T20:58:34.688Z,13.32
2022-08-29T21:01:02.203Z,14.10
2022-08-29T21:03:47.899Z,14.05
2022-08-29T21:06:18.589Z,12.80
2022-08-29T21:08:45.583Z,14.25
2022-08-29T21:11:14.355Z,14.20
2022-08-29T21:13:43.365Z,13.88
2022-08-29T21:16:11.490Z,15.27
2022-08-29T21:18:38.900Z,14.25
2022-08-29T21:21:06.592Z,13.55
2022-08-29T21:23:34.348Z,13.45
2022-08-29T21:26:01.882Z,13.93
2022-08-29T21:28:29.598Z,14.23
2022-08-29T21:31:02.361Z,14.88
2022-08-29T21:33:29.432Z,13.43
2022-08-29T21:35:59.829Z,12.45
2022-08-29T21:38:29.538Z,12.38
2022-08-29T21:40:58.658Z,11.50
2022-08-29T21:43:25.599Z,12.40
2022-08-29T21:45:52.556Z,11.27
2022-08-29T21:48:19.433Z,12.85
2022-08-29T21:50:46.281Z,11.75
2022-08-29T21:53:14.778Z,12.52
2022-08-29T21:55:42.084Z,12.85
2022-08-29T21:58:08.896Z,12.52
2022-08-29T22:00:36.891Z,12.73
2022-08-29T22:03:06.325Z,13.07
2022-08-29T22:05:33.477Z,13.15
2022-08-29T22:08:03.220Z,12.77
2022-08-29T22:10:33.604Z,14.25
2022-08-29T22:13:01.641Z,11.90
2022-08-29T22:15:47.641Z,13.27
2022-08-29T22:18:15.272Z,12.73
2022-08-29T22:20:43.633Z,13.15
2022-08-29T22:23:10.888Z,13.50
2022-08-29T22:25:37.738Z,12.73
2022-08-29T22:28:04.987Z,14.10
2022-08-29T22:30:33.087Z,13.30
2022-08-29T22:33:01.431Z,14.00
2022-08-29T22:35:28.979Z,13.38
2022-08-29T22:37:55.929Z,12.75
2022-08-29T22:40:23.096Z,12.27
2022-08-29T22:42:49.991Z,12.98
2022-08-29T22:45:18.256Z,12.90
2022-08-29T22:47:46.593Z,13.43
2022-08-29T22:50:18.212Z,14.63
2022-08-29T22:52:45.915Z,13.43
2022-08-29T22:57:48.419Z,13.55
2022-08-29T23:00:19.440Z,13.43
2022-08-29T23:02:46.910Z,13.93
2022-08-29T23:05:14.663Z,13.20
2022-08-29T23:07:41.654Z,15.43
2022-08-29T23:10:09.443Z,13.82
2022-08-29T23:12:36.892Z,14.88
2022-08-29T23:15:06.457Z,14.57
2022-08-29T23:17:33.253Z,13.50
2022-08-29T23:20:00.360Z,15.65
2022-08-29T23:22:27.536Z,14.45
2022-08-29T23:24:58.134Z,14.90
2022-08-29T23:27:29.869Z,12.73
2022-08-29T23:29:58.924Z,13.68
2022-08-29T23:32:26.312Z,14.38
2022-08-29T23:34:53.089Z,15.13
2022-08-29T23:37:19.901Z,14.80
2022-08-29T23:39:46.824Z,14.07
2022-08-29T23:42:13.588Z,13.75
2022-08-29T23:44:40.369Z,13.88
2022-08-29T23:47:08.465Z,14.82
2022-08-29T23:49:35.490Z,14.27
2022-08-29T23:52:02.568Z,14.38
2022-08-29T23:54:31.363Z,14.70
2022-08-29T23:56:58.236Z,14.02
2022-08-29T23:59:43.762Z,13.98
